sensor_id;sensor_type;location;lat;lon;timestamp;P1;durP1;ratioP1;P2;durP2;ratioP2
23718;SDS011;43322;52.230;5.702;2023-02-15T00:01:31;55.63;;;33.88;;
23718;SDS011;43322;52.230;5.702;2023-02-15T00:04:00;47.15;;;31.02;;
23718;SDS011;43322;52.230;5.702;2023-02-15T00:06:27;52.45;;;31.92;;
23718;SDS011;43322;52.230;5.702;2023-02-15T00:08:54;65.45;;;37.97;;
23718;SDS011;43322;52.230;5.702;2023-02-15T00:11:22;50.20;;;31.95;;
23718;SDS011;43322;52.230;5.702;2023-02-15T00:14:03;48.70;;;28.70;;
23718;SDS011;43322;52.230;5.702;2023-02-15T00:16:30;43.03;;;28.80;;
23718;SDS011;43322;52.230;5.702;2023-02-15T00:18:57;39.85;;;25.42;;
23718;SDS011;43322;52.230;5.702;2023-02-15T00:21:28;43.10;;;26.45;;
23718;SDS011;43322;52.230;5.702;2023-02-15T00:23:56;35.83;;;24.10;;
23718;SDS011;43322;52.230;5.702;2023-02-15T00:26:24;39.33;;;25.60;;
23718;SDS011;43322;52.230;5.702;2023-02-15T00:28:51;39.33;;;25.60;;
23718;SDS011;43322;52.230;5.702;2023-02-15T00:31:19;38.03;;;25.27;;
23718;SDS011;43322;52.230;5.702;2023-02-15T00:33:46;40.95;;;26.83;;
23718;SDS011;43322;52.230;5.702;2023-02-15T00:36:13;46.40;;;27.45;;
23718;SDS011;43322;52.230;5.702;2023-02-15T00:38:42;37.25;;;24.92;;
23718;SDS011;43322;52.230;5.702;2023-02-15T00:41:09;86.47;;;26.55;;
23718;SDS011;43322;52.230;5.702;2023-02-15T00:43:36;47.53;;;27.08;;
23718;SDS011;43322;52.230;5.702;2023-02-15T00:46:03;39.72;;;26.17;;
23718;SDS011;43322;52.230;5.702;2023-02-15T00:48:31;41.10;;;27.05;;
23718;SDS011;43322;52.230;5.702;2023-02-15T00:50:59;37.63;;;26.55;;
23718;SDS011;43322;52.230;5.702;2023-02-15T00:53:26;41.20;;;27.10;;
23718;SDS011;43322;52.230;5.702;2023-02-15T00:55:55;43.38;;;27.15;;
23718;SDS011;43322;52.230;5.702;2023-02-15T00:58:22;43.90;;;27.92;;
23718;SDS011;43322;52.230;5.702;2023-02-15T01:00:49;42.33;;;26.77;;
23718;SDS011;43322;52.230;5.702;2023-02-15T01:03:17;44.05;;;27.83;;
23718;SDS011;43322;52.230;5.702;2023-02-15T01:05:46;47.25;;;28.05;;
23718;SDS011;43322;52.230;5.702;2023-02-15T01:08:13;44.33;;;27.25;;
23718;SDS011;43322;52.230;5.702;2023-02-15T01:10:41;42.47;;;26.80;;
23718;SDS011;43322;52.230;5.702;2023-02-15T01:13:10;46.75;;;28.55;;
23718;SDS011;43322;52.230;5.702;2023-02-15T01:15:37;47.38;;;28.50;;
23718;SDS011;43322;52.230;5.702;2023-02-15T01:18:04;50.45;;;29.88;;
23718;SDS011;43322;52.230;5.702;2023-02-15T01:20:33;55.22;;;29.48;;
23718;SDS011;43322;52.230;5.702;2023-02-15T01:23:04;49.92;;;29.45;;
23718;SDS011;43322;52.230;5.702;2023-02-15T01:25:32;44.97;;;28.27;;
23718;SDS011;43322;52.230;5.702;2023-02-15T01:28:00;46.80;;;29.80;;
23718;SDS011;43322;52.230;5.702;2023-02-15T01:30:29;53.40;;;30.98;;
23718;SDS011;43322;52.230;5.702;2023-02-15T01:32:56;48.33;;;29.90;;
23718;SDS011;43322;52.230;5.702;2023-02-15T01:35:23;51.80;;;30.55;;
23718;SDS011;43322;52.230;5.702;2023-02-15T01:37:50;46.03;;;29.90;;
23718;SDS011;43322;52.230;5.702;2023-02-15T01:40:17;48.63;;;30.25;;
23718;SDS011;43322;52.230;5.702;2023-02-15T01:42:45;55.83;;;31.75;;
23718;SDS011;43322;52.230;5.702;2023-02-15T01:45:18;51.13;;;30.17;;
23718;SDS011;43322;52.230;5.702;2023-02-15T01:47:49;49.88;;;29.30;;
23718;SDS011;43322;52.230;5.702;2023-02-15T01:50:23;88.32;;;28.60;;
23718;SDS011;43322;52.230;5.702;2023-02-15T01:52:55;45.65;;;27.48;;
23718;SDS011;43322;52.230;5.702;2023-02-15T01:55:25;42.17;;;27.17;;
23718;SDS011;43322;52.230;5.702;2023-02-15T01:57:55;42.33;;;26.55;;
23718;SDS011;43322;52.230;5.702;2023-02-15T02:00:22;45.95;;;28.50;;
23718;SDS011;43322;52.230;5.702;2023-02-15T02:02:51;46.13;;;28.90;;
23718;SDS011;43322;52.230;5.702;2023-02-15T02:05:21;52.20;;;30.52;;
23718;SDS011;43322;52.230;5.702;2023-02-15T02:07:49;51.63;;;30.55;;
23718;SDS011;43322;52.230;5.702;2023-02-15T02:10:19;51.40;;;30.13;;
23718;SDS011;43322;52.230;5.702;2023-02-15T02:12:49;52.92;;;30.40;;
23718;SDS011;43322;52.230;5.702;2023-02-15T02:15:20;53.55;;;30.55;;
23718;SDS011;43322;52.230;5.702;2023-02-15T02:17:59;51.47;;;29.30;;
23718;SDS011;43322;52.230;5.702;2023-02-15T02:20:49;46.30;;;28.13;;
23718;SDS011;43322;52.230;5.702;2023-02-15T02:23:39;52.10;;;28.80;;
23718;SDS011;43322;52.230;5.702;2023-02-15T02:29:39;40.25;;;25.17;;
23718;SDS011;43322;52.230;5.702;2023-02-15T02:32:46;48.45;;;26.95;;
23718;SDS011;43322;52.230;5.702;2023-02-15T02:35:33;59.33;;;28.95;;
23718;SDS011;43322;52.230;5.702;2023-02-15T02:38:11;52.08;;;29.40;;
23718;SDS011;43322;52.230;5.702;2023-02-15T02:40:47;52.72;;;30.15;;
23718;SDS011;43322;52.230;5.702;2023-02-15T02:43:21;59.63;;;31.35;;
23718;SDS011;43322;52.230;5.702;2023-02-15T02:45:55;54.58;;;29.52;;
23718;SDS011;43322;52.230;5.702;2023-02-15T02:48:27;52.47;;;28.80;;
23718;SDS011;43322;52.230;5.702;2023-02-15T02:50:58;39.53;;;25.27;;
23718;SDS011;43322;52.230;5.702;2023-02-15T02:53:25;43.83;;;25.75;;
23718;SDS011;43322;52.230;5.702;2023-02-15T02:55:53;47.05;;;26.70;;
23718;SDS011;43322;52.230;5.702;2023-02-15T02:58:24;54.72;;;29.67;;
23718;SDS011;43322;52.230;5.702;2023-02-15T03:00:59;54.35;;;30.25;;
23718;SDS011;43322;52.230;5.702;2023-02-15T03:03:34;53.90;;;29.52;;
23718;SDS011;43322;52.230;5.702;2023-02-15T03:06:05;55.08;;;31.17;;
23718;SDS011;43322;52.230;5.702;2023-02-15T03:08:36;63.35;;;31.17;;
23718;SDS011;43322;52.230;5.702;2023-02-15T03:11:08;57.60;;;31.92;;
23718;SDS011;43322;52.230;5.702;2023-02-15T03:13:37;55.47;;;30.15;;
23718;SDS011;43322;52.230;5.702;2023-02-15T03:16:04;55.45;;;30.73;;
23718;SDS011;43322;52.230;5.702;2023-02-15T03:18:52;58.00;;;29.90;;
23718;SDS011;43322;52.230;5.702;2023-02-15T03:21:25;52.45;;;29.33;;
23718;SDS011;43322;52.230;5.702;2023-02-15T03:23:58;49.08;;;29.17;;
23718;SDS011;43322;52.230;5.702;2023-02-15T03:26:29;53.90;;;28.25;;
23718;SDS011;43322;52.230;5.702;2023-02-15T03:28:59;52.85;;;29.73;;
23718;SDS011;43322;52.230;5.702;2023-02-15T03:31:29;50.70;;;30.20;;
23718;SDS011;43322;52.230;5.702;2023-02-15T03:34:01;51.70;;;29.85;;
23718;SDS011;43322;52.230;5.702;2023-02-15T03:36:32;46.22;;;27.40;;
23718;SDS011;43322;52.230;5.702;2023-02-15T03:39:05;51.78;;;28.02;;
23718;SDS011;43322;52.230;5.702;2023-02-15T03:41:39;53.40;;;29.23;;
23718;SDS011;43322;52.230;5.702;2023-02-15T03:44:13;50.13;;;28.08;;
23718;SDS011;43322;52.230;5.702;2023-02-15T03:46:47;52.85;;;29.05;;
23718;SDS011;43322;52.230;5.702;2023-02-15T03:49:21;57.97;;;30.50;;
23718;SDS011;43322;52.230;5.702;2023-02-15T03:51:51;60.13;;;30.98;;
23718;SDS011;43322;52.230;5.702;2023-02-15T03:54:21;56.65;;;29.45;;
23718;SDS011;43322;52.230;5.702;2023-02-15T03:57:11;53.80;;;29.23;;
23718;SDS011;43322;52.230;5.702;2023-02-15T03:59:58;48.45;;;26.45;;
23718;SDS011;43322;52.230;5.702;2023-02-15T04:02:45;46.63;;;27.33;;
23718;SDS011;43322;52.230;5.702;2023-02-15T04:05:27;50.35;;;28.05;;
23718;SDS011;43322;52.230;5.702;2023-02-15T04:07:54;49.28;;;27.63;;
23718;SDS011;43322;52.230;5.702;2023-02-15T04:10:21;47.95;;;27.17;;
23718;SDS011;43322;52.230;5.702;2023-02-15T04:13:05;55.20;;;26.40;;
23718;SDS011;43322;52.230;5.702;2023-02-15T04:15:32;48.58;;;26.25;;
23718;SDS011;43322;52.230;5.702;2023-02-15T04:18:16;44.97;;;25.55;;
23718;SDS011;43322;52.230;5.702;2023-02-15T04:20:45;50.70;;;26.92;;
23718;SDS011;43322;52.230;5.702;2023-02-15T04:23:30;43.42;;;25.67;;
23718;SDS011;43322;52.230;5.702;2023-02-15T04:26:14;44.50;;;25.23;;
23718;SDS011;43322;52.230;5.702;2023-02-15T04:28:41;40.40;;;24.27;;
23718;SDS011;43322;52.230;5.702;2023-02-15T04:31:08;41.25;;;25.13;;
23718;SDS011;43322;52.230;5.702;2023-02-15T04:33:35;46.88;;;26.10;;
23718;SDS011;43322;52.230;5.702;2023-02-15T04:36:04;52.42;;;26.55;;
23718;SDS011;43322;52.230;5.702;2023-02-15T04:38:31;45.00;;;25.83;;
23718;SDS011;43322;52.230;5.702;2023-02-15T04:40:58;39.17;;;24.05;;
23718;SDS011;43322;52.230;5.702;2023-02-15T04:43:25;44.92;;;25.88;;
23718;SDS011;43322;52.230;5.702;2023-02-15T04:45:52;42.88;;;25.08;;
23718;SDS011;43322;52.230;5.702;2023-02-15T04:48:19;48.80;;;26.60;;
23718;SDS011;43322;52.230;5.702;2023-02-15T04:50:46;53.65;;;29.10;;
23718;SDS011;43322;52.230;5.702;2023-02-15T04:53:15;54.40;;;28.83;;
23718;SDS011;43322;52.230;5.702;2023-02-15T04:55:43;51.35;;;27.70;;
23718;SDS011;43322;52.230;5.702;2023-02-15T04:58:10;58.53;;;30.15;;
23718;SDS011;43322;52.230;5.702;2023-02-15T05:00:36;59.20;;;30.83;;
23718;SDS011;43322;52.230;5.702;2023-02-15T05:03:03;58.47;;;31.52;;
23718;SDS011;43322;52.230;5.702;2023-02-15T05:05:30;60.75;;;30.48;;
23718;SDS011;43322;52.230;5.702;2023-02-15T05:07:57;60.20;;;29.00;;
23718;SDS011;43322;52.230;5.702;2023-02-15T05:10:26;59.30;;;30.33;;
23718;SDS011;43322;52.230;5.702;2023-02-15T05:12:52;56.72;;;30.52;;
23718;SDS011;43322;52.230;5.702;2023-02-15T05:15:19;54.33;;;29.77;;
23718;SDS011;43322;52.230;5.702;2023-02-15T05:17:46;58.05;;;30.17;;
23718;SDS011;43322;52.230;5.702;2023-02-15T05:20:13;65.28;;;32.10;;
23718;SDS011;43322;52.230;5.702;2023-02-15T05:22:40;59.15;;;30.80;;
23718;SDS011;43322;52.230;5.702;2023-02-15T05:25:07;53.63;;;29.05;;
23718;SDS011;43322;52.230;5.702;2023-02-15T05:27:54;52.25;;;29.30;;
23718;SDS011;43322;52.230;5.702;2023-02-15T05:30:38;55.35;;;29.52;;
23718;SDS011;43322;52.230;5.702;2023-02-15T05:33:05;56.42;;;29.20;;
23718;SDS011;43322;52.230;5.702;2023-02-15T05:35:32;57.05;;;29.63;;
23718;SDS011;43322;52.230;5.702;2023-02-15T05:38:00;51.47;;;28.58;;
23718;SDS011;43322;52.230;5.702;2023-02-15T05:40:27;55.80;;;29.83;;
23718;SDS011;43322;52.230;5.702;2023-02-15T05:42:56;56.08;;;29.75;;
23718;SDS011;43322;52.230;5.702;2023-02-15T05:45:23;59.28;;;30.42;;
23718;SDS011;43322;52.230;5.702;2023-02-15T05:47:51;58.42;;;30.38;;
23718;SDS011;43322;52.230;5.702;2023-02-15T05:50:18;56.72;;;30.35;;
23718;SDS011;43322;52.230;5.702;2023-02-15T05:52:46;54.95;;;29.60;;
23718;SDS011;43322;52.230;5.702;2023-02-15T05:55:13;56.00;;;29.40;;
23718;SDS011;43322;52.230;5.702;2023-02-15T05:57:40;56.13;;;29.40;;
23718;SDS011;43322;52.230;5.702;2023-02-15T06:00:09;61.50;;;29.75;;
23718;SDS011;43322;52.230;5.702;2023-02-15T06:02:37;56.80;;;29.63;;
23718;SDS011;43322;52.230;5.702;2023-02-15T06:05:05;50.55;;;27.90;;
23718;SDS011;43322;52.230;5.702;2023-02-15T06:07:32;59.15;;;29.10;;
23718;SDS011;43322;52.230;5.702;2023-02-15T06:09:59;57.20;;;28.80;;
23718;SDS011;43322;52.230;5.702;2023-02-15T06:12:26;50.67;;;28.13;;
23718;SDS011;43322;52.230;5.702;2023-02-15T06:14:53;55.33;;;28.05;;
23718;SDS011;43322;52.230;5.702;2023-02-15T06:17:21;53.42;;;28.48;;
23718;SDS011;43322;52.230;5.702;2023-02-15T06:19:48;52.83;;;27.60;;
23718;SDS011;43322;52.230;5.702;2023-02-15T06:22:15;53.20;;;27.30;;
23718;SDS011;43322;52.230;5.702;2023-02-15T06:24:42;57.15;;;29.75;;
23718;SDS011;43322;52.230;5.702;2023-02-15T06:27:09;64.75;;;29.50;;
23718;SDS011;43322;52.230;5.702;2023-02-15T06:29:36;55.08;;;28.98;;
23718;SDS011;43322;52.230;5.702;2023-02-15T06:32:03;48.78;;;27.50;;
23718;SDS011;43322;52.230;5.702;2023-02-15T06:34:32;54.20;;;28.98;;
23718;SDS011;43322;52.230;5.702;2023-02-15T06:36:58;52.47;;;28.38;;
23718;SDS011;43322;52.230;5.702;2023-02-15T06:39:25;55.25;;;29.08;;
23718;SDS011;43322;52.230;5.702;2023-02-15T06:41:52;55.78;;;29.65;;
23718;SDS011;43322;52.230;5.702;2023-02-15T06:44:19;50.25;;;27.77;;
23718;SDS011;43322;52.230;5.702;2023-02-15T06:46:46;51.35;;;28.00;;
23718;SDS011;43322;52.230;5.702;2023-02-15T06:49:13;56.88;;;29.27;;
23718;SDS011;43322;52.230;5.702;2023-02-15T06:51:41;52.15;;;25.63;;
23718;SDS011;43322;52.230;5.702;2023-02-15T06:54:08;54.25;;;27.92;;
23718;SDS011;43322;52.230;5.702;2023-02-15T06:56:35;52.90;;;28.35;;
23718;SDS011;43322;52.230;5.702;2023-02-15T06:59:02;49.35;;;27.20;;
23718;SDS011;43322;52.230;5.702;2023-02-15T07:01:29;54.88;;;28.73;;
23718;SDS011;43322;52.230;5.702;2023-02-15T07:03:56;55.85;;;28.70;;
23718;SDS011;43322;52.230;5.702;2023-02-15T07:06:23;53.75;;;29.48;;
23718;SDS011;43322;52.230;5.702;2023-02-15T07:08:51;55.50;;;29.27;;
23718;SDS011;43322;52.230;5.702;2023-02-15T07:11:18;55.55;;;29.00;;
23718;SDS011;43322;52.230;5.702;2023-02-15T07:14:02;56.75;;;29.33;;
23718;SDS011;43322;52.230;5.702;2023-02-15T07:16:28;57.55;;;29.35;;
23718;SDS011;43322;52.230;5.702;2023-02-15T07:18:55;59.50;;;30.83;;
23718;SDS011;43322;52.230;5.702;2023-02-15T07:21:22;58.22;;;29.50;;
23718;SDS011;43322;52.230;5.702;2023-02-15T07:23:50;59.65;;;31.58;;
23718;SDS011;43322;52.230;5.702;2023-02-15T07:26:17;62.00;;;31.92;;
23718;SDS011;43322;52.230;5.702;2023-02-15T07:28:44;61.65;;;31.08;;
23718;SDS011;43322;52.230;5.702;2023-02-15T07:31:11;53.65;;;29.30;;
23718;SDS011;43322;52.230;5.702;2023-02-15T07:33:38;56.78;;;30.55;;
23718;SDS011;43322;52.230;5.702;2023-02-15T07:36:05;57.45;;;29.27;;
23718;SDS011;43322;52.230;5.702;2023-02-15T07:38:35;63.03;;;30.70;;
23718;SDS011;43322;52.230;5.702;2023-02-15T07:41:05;65.32;;;30.63;;
23718;SDS011;43322;52.230;5.702;2023-02-15T07:43:33;62.33;;;29.65;;
23718;SDS011;43322;52.230;5.702;2023-02-15T07:46:00;59.42;;;31.55;;
23718;SDS011;43322;52.230;5.702;2023-02-15T07:48:28;64.57;;;32.50;;
23718;SDS011;43322;52.230;5.702;2023-02-15T07:50:58;64.35;;;32.60;;
23718;SDS011;43322;52.230;5.702;2023-02-15T07:53:25;62.55;;;32.80;;
23718;SDS011;43322;52.230;5.702;2023-02-15T07:55:52;64.88;;;33.47;;
23718;SDS011;43322;52.230;5.702;2023-02-15T07:58:21;66.15;;;32.60;;
23718;SDS011;43322;52.230;5.702;2023-02-15T08:01:08;58.58;;;31.92;;
23718;SDS011;43322;52.230;5.702;2023-02-15T08:03:34;54.50;;;31.73;;
23718;SDS011;43322;52.230;5.702;2023-02-15T08:06:01;51.08;;;29.25;;
23718;SDS011;43322;52.230;5.702;2023-02-15T08:08:28;42.88;;;26.92;;
23718;SDS011;43322;52.230;5.702;2023-02-15T08:10:59;48.63;;;26.63;;
23718;SDS011;43322;52.230;5.702;2023-02-15T08:13:45;44.13;;;25.77;;
23718;SDS011;43322;52.230;5.702;2023-02-15T08:18:49;44.63;;;25.33;;
23718;SDS011;43322;52.230;5.702;2023-02-15T08:21:17;43.85;;;25.63;;
23718;SDS011;43322;52.230;5.702;2023-02-15T08:23:44;43.35;;;26.63;;
23718;SDS011;43322;52.230;5.702;2023-02-15T08:26:12;44.92;;;26.33;;
23718;SDS011;43322;52.230;5.702;2023-02-15T08:28:41;41.72;;;24.73;;
23718;SDS011;43322;52.230;5.702;2023-02-15T08:31:11;46.78;;;26.73;;
23718;SDS011;43322;52.230;5.702;2023-02-15T08:33:39;48.45;;;25.95;;
23718;SDS011;43322;52.230;5.702;2023-02-15T08:36:08;49.63;;;27.70;;
23718;SDS011;43322;52.230;5.702;2023-02-15T08:38:37;47.08;;;26.55;;
23718;SDS011;43322;52.230;5.702;2023-02-15T08:41:11;48.53;;;26.38;;
23718;SDS011;43322;52.230;5.702;2023-02-15T08:43:39;41.33;;;26.73;;
23718;SDS011;43322;52.230;5.702;2023-02-15T08:46:07;47.40;;;27.25;;
23718;SDS011;43322;52.230;5.702;2023-02-15T08:48:36;43.25;;;25.80;;
23718;SDS011;43322;52.230;5.702;2023-02-15T08:51:04;44.50;;;26.60;;
23718;SDS011;43322;52.230;5.702;2023-02-15T08:53:32;44.65;;;26.95;;
23718;SDS011;43322;52.230;5.702;2023-02-15T08:55:59;44.80;;;26.00;;
23718;SDS011;43322;52.230;5.702;2023-02-15T08:58:26;43.50;;;27.35;;
23718;SDS011;43322;52.230;5.702;2023-02-15T09:00:55;46.40;;;26.27;;
23718;SDS011;43322;52.230;5.702;2023-02-15T09:03:22;41.95;;;26.60;;
23718;SDS011;43322;52.230;5.702;2023-02-15T09:05:53;48.88;;;26.92;;
23718;SDS011;43322;52.230;5.702;2023-02-15T09:08:23;43.00;;;26.52;;
23718;SDS011;43322;52.230;5.702;2023-02-15T09:10:51;40.08;;;25.10;;
23718;SDS011;43322;52.230;5.702;2023-02-15T09:13:18;41.72;;;24.92;;
23718;SDS011;43322;52.230;5.702;2023-02-15T09:15:45;43.97;;;25.85;;
23718;SDS011;43322;52.230;5.702;2023-02-15T09:18:12;41.22;;;25.88;;
23718;SDS011;43322;52.230;5.702;2023-02-15T09:20:42;41.25;;;25.80;;
23718;SDS011;43322;52.230;5.702;2023-02-15T09:23:11;41.67;;;25.45;;
23718;SDS011;43322;52.230;5.702;2023-02-15T09:25:39;40.67;;;26.45;;
23718;SDS011;43322;52.230;5.702;2023-02-15T09:28:07;43.58;;;27.85;;
23718;SDS011;43322;52.230;5.702;2023-02-15T09:30:34;45.75;;;28.20;;
23718;SDS011;43322;52.230;5.702;2023-02-15T09:33:01;43.55;;;28.00;;
23718;SDS011;43322;52.230;5.702;2023-02-15T09:35:28;46.78;;;27.35;;
23718;SDS011;43322;52.230;5.702;2023-02-15T09:37:55;50.45;;;29.15;;
23718;SDS011;43322;52.230;5.702;2023-02-15T09:40:24;49.60;;;28.73;;
23718;SDS011;43322;52.230;5.702;2023-02-15T09:45:52;53.78;;;29.25;;
23718;SDS011;43322;52.230;5.702;2023-02-15T09:48:42;45.33;;;28.08;;
23718;SDS011;43322;52.230;5.702;2023-02-15T09:51:17;45.45;;;28.58;;
23718;SDS011;43322;52.230;5.702;2023-02-15T09:54:14;43.35;;;27.45;;
23718;SDS011;43322;52.230;5.702;2023-02-15T09:56:57;42.90;;;26.63;;
23718;SDS011;43322;52.230;5.702;2023-02-15T09:59:32;48.17;;;28.75;;
23718;SDS011;43322;52.230;5.702;2023-02-15T10:02:08;45.97;;;27.50;;
23718;SDS011;43322;52.230;5.702;2023-02-15T10:04:49;45.03;;;27.83;;
23718;SDS011;43322;52.230;5.702;2023-02-15T10:07:29;48.22;;;28.30;;
23718;SDS011;43322;52.230;5.702;2023-02-15T10:10:12;50.08;;;29.08;;
23718;SDS011;43322;52.230;5.702;2023-02-15T10:12:55;42.95;;;27.25;;
23718;SDS011;43322;52.230;5.702;2023-02-15T10:15:36;43.40;;;27.63;;
23718;SDS011;43322;52.230;5.702;2023-02-15T10:18:23;45.67;;;26.83;;
23718;SDS011;43322;52.230;5.702;2023-02-15T10:21:04;41.15;;;25.38;;
23718;SDS011;43322;52.230;5.702;2023-02-15T10:23:44;46.40;;;27.95;;
23718;SDS011;43322;52.230;5.702;2023-02-15T10:26:26;42.95;;;26.88;;
23718;SDS011;43322;52.230;5.702;2023-02-15T10:29:02;45.58;;;27.45;;
23718;SDS011;43322;52.230;5.702;2023-02-15T10:31:36;46.53;;;28.52;;
23718;SDS011;43322;52.230;5.702;2023-02-15T10:34:12;44.00;;;27.85;;
23718;SDS011;43322;52.230;5.702;2023-02-15T10:36:47;43.97;;;27.42;;
23718;SDS011;43322;52.230;5.702;2023-02-15T10:39:36;46.30;;;27.85;;
23718;SDS011;43322;52.230;5.702;2023-02-15T10:42:09;49.15;;;27.75;;
23718;SDS011;43322;52.230;5.702;2023-02-15T10:44:47;46.70;;;27.90;;
23718;SDS011;43322;52.230;5.702;2023-02-15T10:47:31;43.05;;;27.23;;
23718;SDS011;43322;52.230;5.702;2023-02-15T10:50:13;43.63;;;26.92;;
23718;SDS011;43322;52.230;5.702;2023-02-15T10:52:52;43.80;;;27.42;;
23718;SDS011;43322;52.230;5.702;2023-02-15T10:55:31;40.30;;;25.90;;
23718;SDS011;43322;52.230;5.702;2023-02-15T10:58:08;41.58;;;25.55;;
23718;SDS011;43322;52.230;5.702;2023-02-15T11:00:44;45.15;;;25.67;;
23718;SDS011;43322;52.230;5.702;2023-02-15T11:03:18;39.03;;;25.02;;
23718;SDS011;43322;52.230;5.702;2023-02-15T11:06:03;39.70;;;25.38;;
23718;SDS011;43322;52.230;5.702;2023-02-15T11:08:35;41.13;;;26.38;;
23718;SDS011;43322;52.230;5.702;2023-02-15T11:11:06;40.03;;;26.05;;
23718;SDS011;43322;52.230;5.702;2023-02-15T11:13:36;39.33;;;24.65;;
23718;SDS011;43322;52.230;5.702;2023-02-15T11:16:08;36.15;;;23.20;;
23718;SDS011;43322;52.230;5.702;2023-02-15T11:18:39;40.08;;;23.65;;
23718;SDS011;43322;52.230;5.702;2023-02-15T11:21:11;39.58;;;24.42;;
23718;SDS011;43322;52.230;5.702;2023-02-15T11:23:44;44.00;;;25.08;;
23718;SDS011;43322;52.230;5.702;2023-02-15T11:26:13;37.63;;;25.00;;
23718;SDS011;43322;52.230;5.702;2023-02-15T11:28:45;37.72;;;24.13;;
23718;SDS011;43322;52.230;5.702;2023-02-15T11:31:20;38.17;;;24.73;;
23718;SDS011;43322;52.230;5.702;2023-02-15T11:33:50;44.03;;;24.33;;
23718;SDS011;43322;52.230;5.702;2023-02-15T11:36:20;37.67;;;24.17;;
23718;SDS011;43322;52.230;5.702;2023-02-15T11:38:52;37.97;;;24.33;;
23718;SDS011;43322;52.230;5.702;2023-02-15T11:41:24;39.67;;;24.83;;
23718;SDS011;43322;52.230;5.702;2023-02-15T11:43:56;40.80;;;24.50;;
23718;SDS011;43322;52.230;5.702;2023-02-15T11:46:28;38.40;;;25.63;;
23718;SDS011;43322;52.230;5.702;2023-02-15T11:48:55;38.15;;;24.52;;
23718;SDS011;43322;52.230;5.702;2023-02-15T11:51:23;40.90;;;25.27;;
23718;SDS011;43322;52.230;5.702;2023-02-15T11:53:52;39.83;;;24.70;;
23718;SDS011;43322;52.230;5.702;2023-02-15T11:56:20;40.88;;;24.95;;
23718;SDS011;43322;52.230;5.702;2023-02-15T11:58:51;35.80;;;23.50;;
23718;SDS011;43322;52.230;5.702;2023-02-15T12:01:23;37.83;;;24.70;;
23718;SDS011;43322;52.230;5.702;2023-02-15T12:03:56;46.90;;;24.50;;
23718;SDS011;43322;52.230;5.702;2023-02-15T12:06:27;36.60;;;23.58;;
23718;SDS011;43322;52.230;5.702;2023-02-15T12:08:57;37.10;;;24.20;;
23718;SDS011;43322;52.230;5.702;2023-02-15T12:11:31;41.28;;;25.73;;
23718;SDS011;43322;52.230;5.702;2023-02-15T12:14:02;38.97;;;24.83;;
23718;SDS011;43322;52.230;5.702;2023-02-15T12:16:32;40.35;;;24.60;;
23718;SDS011;43322;52.230;5.702;2023-02-15T12:19:12;38.90;;;25.48;;
23718;SDS011;43322;52.230;5.702;2023-02-15T12:21:54;39.67;;;24.65;;
23718;SDS011;43322;52.230;5.702;2023-02-15T12:24:23;38.28;;;24.98;;
23718;SDS011;43322;52.230;5.702;2023-02-15T12:26:57;36.65;;;23.80;;
23718;SDS011;43322;52.230;5.702;2023-02-15T12:29:27;37.15;;;23.80;;
23718;SDS011;43322;52.230;5.702;2023-02-15T12:31:56;39.53;;;23.67;;
23718;SDS011;43322;52.230;5.702;2023-02-15T12:34:26;45.70;;;25.10;;
23718;SDS011;43322;52.230;5.702;2023-02-15T12:36:56;39.65;;;24.40;;
23718;SDS011;43322;52.230;5.702;2023-02-15T12:39:27;42.95;;;25.73;;
23718;SDS011;43322;52.230;5.702;2023-02-15T12:42:00;39.88;;;25.35;;
23718;SDS011;43322;52.230;5.702;2023-02-15T12:44:29;43.22;;;25.52;;
23718;SDS011;43322;52.230;5.702;2023-02-15T12:46:59;37.95;;;24.80;;
23718;SDS011;43322;52.230;5.702;2023-02-15T12:49:30;45.45;;;26.63;;
23718;SDS011;43322;52.230;5.702;2023-02-15T12:51:59;41.85;;;25.25;;
23718;SDS011;43322;52.230;5.702;2023-02-15T12:54:30;40.83;;;25.20;;
23718;SDS011;43322;52.230;5.702;2023-02-15T12:57:15;41.03;;;25.70;;
23718;SDS011;43322;52.230;5.702;2023-02-15T12:59:52;41.22;;;25.38;;
23718;SDS011;43322;52.230;5.702;2023-02-15T13:02:22;42.38;;;25.80;;
23718;SDS011;43322;52.230;5.702;2023-02-15T13:05:10;41.42;;;25.23;;
23718;SDS011;43322;52.230;5.702;2023-02-15T13:07:44;45.00;;;25.15;;
23718;SDS011;43322;52.230;5.702;2023-02-15T13:10:19;42.60;;;25.25;;
23718;SDS011;43322;52.230;5.702;2023-02-15T13:12:49;41.95;;;24.60;;
23718;SDS011;43322;52.230;5.702;2023-02-15T13:15:23;39.85;;;25.08;;
23718;SDS011;43322;52.230;5.702;2023-02-15T13:17:57;41.05;;;24.60;;
23718;SDS011;43322;52.230;5.702;2023-02-15T13:20:26;42.45;;;24.67;;
23718;SDS011;43322;52.230;5.702;2023-02-15T13:22:58;41.30;;;24.55;;
23718;SDS011;43322;52.230;5.702;2023-02-15T13:25:29;37.60;;;24.42;;
23718;SDS011;43322;52.230;5.702;2023-02-15T13:28:01;45.88;;;25.90;;
23718;SDS011;43322;52.230;5.702;2023-02-15T13:30:30;45.80;;;25.52;;
23718;SDS011;43322;52.230;5.702;2023-02-15T13:33:02;40.10;;;25.13;;
23718;SDS011;43322;52.230;5.702;2023-02-15T13:35:34;46.03;;;26.65;;
23718;SDS011;43322;52.230;5.702;2023-02-15T13:38:09;41.90;;;26.23;;
23718;SDS011;43322;52.230;5.702;2023-02-15T13:40:46;46.17;;;26.05;;
23718;SDS011;43322;52.230;5.702;2023-02-15T13:43:23;44.58;;;26.42;;
23718;SDS011;43322;52.230;5.702;2023-02-15T13:48:50;43.10;;;26.27;;
23718;SDS011;43322;52.230;5.702;2023-02-15T13:51:27;44.42;;;26.48;;
23718;SDS011;43322;52.230;5.702;2023-02-15T13:54:08;39.67;;;25.58;;
23718;SDS011;43322;52.230;5.702;2023-02-15T13:56:58;43.75;;;26.95;;
23718;SDS011;43322;52.230;5.702;2023-02-15T13:59:46;42.97;;;26.38;;
23718;SDS011;43322;52.230;5.702;2023-02-15T14:02:30;44.70;;;26.55;;
23718;SDS011;43322;52.230;5.702;2023-02-15T14:05:14;45.35;;;26.73;;
23718;SDS011;43322;52.230;5.702;2023-02-15T14:07:58;45.13;;;27.55;;
23718;SDS011;43322;52.230;5.702;2023-02-15T14:10:38;48.15;;;27.65;;
23718;SDS011;43322;52.230;5.702;2023-02-15T14:16:03;45.33;;;27.73;;
23718;SDS011;43322;52.230;5.702;2023-02-15T14:18:35;50.60;;;27.65;;
23718;SDS011;43322;52.230;5.702;2023-02-15T14:21:08;45.35;;;28.30;;
23718;SDS011;43322;52.230;5.702;2023-02-15T14:23:43;45.60;;;28.95;;
23718;SDS011;43322;52.230;5.702;2023-02-15T14:26:21;49.58;;;28.83;;
23718;SDS011;43322;52.230;5.702;2023-02-15T14:29:02;42.35;;;28.83;;
23718;SDS011;43322;52.230;5.702;2023-02-15T14:31:42;46.00;;;29.30;;
23718;SDS011;43322;52.230;5.702;2023-02-15T14:34:16;47.65;;;28.92;;
23718;SDS011;43322;52.230;5.702;2023-02-15T14:36:46;54.50;;;29.55;;
23718;SDS011;43322;52.230;5.702;2023-02-15T14:39:18;49.92;;;29.95;;
23718;SDS011;43322;52.230;5.702;2023-02-15T14:42:15;46.38;;;29.27;;
23718;SDS011;43322;52.230;5.702;2023-02-15T14:44:47;47.60;;;29.88;;
23718;SDS011;43322;52.230;5.702;2023-02-15T14:47:19;46.63;;;29.17;;
23718;SDS011;43322;52.230;5.702;2023-02-15T14:49:49;53.90;;;30.77;;
23718;SDS011;43322;52.230;5.702;2023-02-15T14:52:15;52.28;;;31.38;;
23718;SDS011;43322;52.230;5.702;2023-02-15T14:54:54;48.22;;;30.20;;
23718;SDS011;43322;52.230;5.702;2023-02-15T14:57:23;48.58;;;30.05;;
23718;SDS011;43322;52.230;5.702;2023-02-15T14:59:53;50.83;;;29.27;;
23718;SDS011;43322;52.230;5.702;2023-02-15T15:02:26;51.08;;;30.40;;